Time;durP1;ratioP1;P1;durP2;ratioP2;P2;SDS_P1;SDS_P2;PMS_P1;PMS_P2;Temp;Humidity;BMP_temperature;BMP_pressure;BME280_temperature;BME280_humidity;BME280_pressure;Samples;Min_cycle;Max_cycle;Signal;HPM_P1;HPM_P2
2023/03/26 00:01:28;;;;;;;2.08;1.27;;;;;;;10.25;52.84;98611.34;4270607;33;33414;-88
2023/03/26 00:03:56;;;;;;;1.30;0.77;;;;;;;9.99;53.52;98613.75;4258924;33;33949;-87
2023/03/26 00:06:27;;;;;;;1.62;0.73;;;;;;;10.13;53.78;98616.41;4270461;33;34495;-87
2023/03/26 00:08:57;;;;;;;2.80;0.80;;;;;;;10.16;53.04;98606.94;4263283;33;34816;-87
2023/03/26 00:11:26;;;;;;;1.52;0.60;;;;;;;9.90;53.74;98604.19;4257861;33;34667;-87
2023/03/26 00:13:57;;;;;;;4.05;0.90;;;;;;;10.11;53.29;98603.44;4255033;33;34438;-85
2023/03/26 00:16:28;;;;;;;3.33;0.75;;;;;;;9.84;54.35;98616.22;4265074;33;34399;-86
2023/03/26 00:18:56;;;;;;;1.80;0.70;;;;;;;9.78;53.94;98616.22;4276661;33;33685;-86
2023/03/26 00:21:26;;;;;;;2.40;0.90;;;;;;;9.73;54.19;98611.84;4256726;33;34409;-85
2023/03/26 00:24:06;;;;;;;3.90;0.85;;;;;;;9.75;54.11;98610.12;4270751;33;33666;-87
2023/03/26 00:26:36;;;;;;;2.12;0.70;;;;;;;9.73;54.12;98611.84;4270840;33;34359;-87
2023/03/26 00:29:05;;;;;;;2.15;0.60;;;;;;;9.25;55.32;98608.03;4276416;33;34961;-86
2023/03/26 00:31:33;;;;;;;3.40;0.82;;;;;;;9.31;55.33;98606.31;4265600;33;34223;-87
2023/03/26 00:34:02;;;;;;;1.52;0.80;;;;;;;9.12;56.11;98600.97;4272420;33;34209;-87
2023/03/26 00:36:31;;;;;;;1.27;0.60;;;;;;;9.18;55.66;98606.22;4270128;33;33676;-87
2023/03/26 00:38:58;;;;;;;2.33;0.80;;;;;;;9.10;56.00;98602.72;4272967;33;34890;-87
2023/03/26 00:41:29;;;;;;;1.33;0.60;;;;;;;9.28;55.50;98596.84;4279056;33;33899;-86
2023/03/26 00:43:58;;;;;;;1.65;0.70;;;;;;;9.22;55.52;98591.59;4272385;33;33979;-87
2023/03/26 00:46:29;;;;;;;0.95;0.57;;;;;;;9.18;55.73;98597.59;4273114;33;33253;-86
2023/03/26 00:48:58;;;;;;;1.58;0.52;;;;;;;9.12;55.86;98590.63;4272304;33;34715;-86
2023/03/26 00:51:27;;;;;;;1.40;0.50;;;;;;;9.27;55.45;98587.31;4279162;33;34293;-86
2023/03/26 00:53:56;;;;;;;1.45;0.70;;;;;;;9.50;54.79;98583.19;4269532;33;33585;-87
2023/03/26 00:56:25;;;;;;;1.95;0.70;;;;;;;9.36;55.08;98574.50;4259774;33;33488;-85
2023/03/26 00:58:53;;;;;;;2.25;0.50;;;;;;;9.22;55.43;98569.19;4272124;33;33971;-85
2023/03/26 01:01:26;;;;;;;2.75;0.77;;;;;;;9.41;54.86;98571.94;4272221;33;33774;-86
2023/03/26 01:03:58;;;;;;;2.50;0.80;;;;;;;9.46;54.78;98570.22;4259208;33;34288;-85
2023/03/26 01:06:36;;;;;;;1.67;0.80;;;;;;;9.27;55.24;98570.09;4279756;33;33195;-86
2023/03/26 01:09:14;;;;;;;1.75;0.80;;;;;;;9.55;54.50;98572.03;4249194;33;34445;-86
2023/03/26 01:11:43;;;;;;;2.33;0.80;;;;;;;9.25;55.45;98584.75;4257989;33;34882;-85
2023/03/26 01:14:15;;;;;;;2.92;0.73;;;;;;;8.65;56.96;98578.13;4258549;33;34407;-89
2023/03/26 01:17:04;;;;;;;3.53;0.80;;;;;;;9.27;55.12;98584.75;4258364;33;31707;-86
2023/03/26 01:19:55;;;;;;;2.83;0.73;;;;;;;9.08;55.33;98583.72;4245866;33;33048;-87
2023/03/26 01:22:24;;;;;;;3.75;0.80;;;;;;;9.09;55.40;98588.06;4270918;33;33936;-86
2023/03/26 01:24:54;;;;;;;4.57;0.98;;;;;;;9.53;54.04;98587.53;4280635;33;35024;-86
2023/03/26 01:27:31;;;;;;;3.05;1.08;;;;;;;9.21;55.06;98588.16;4272186;33;33552;-86
2023/03/26 01:30:10;;;;;;;5.60;0.98;;;;;;;9.12;55.13;98593.22;4257987;33;33203;-87
2023/03/26 01:33:14;;;;;;;1.75;0.85;;;;;;;9.12;55.44;98597.53;4275871;33;35130;-86
2023/03/26 01:35:49;;;;;;;2.83;1.00;;;;;;;9.54;53.66;98589.25;4230195;33;33787;-86
2023/03/26 01:38:22;;;;;;;4.25;0.80;;;;;;;9.49;53.58;98596.13;4254427;33;34117;-86
2023/03/26 01:40:50;;;;;;;1.58;0.85;;;;;;;9.51;54.02;98594.44;4272136;33;33993;-86
2023/03/26 01:43:35;;;;;;;3.50;1.17;;;;;;;9.80;52.68;98597.22;4272353;33;33370;-86
2023/03/26 01:46:06;;;;;;;2.37;0.97;;;;;;;9.52;53.82;98590.13;4259474;33;33946;-85
2023/03/26 01:48:40;;;;;;;3.50;0.80;;;;;;;9.78;52.79;98585.16;4259178;33;33947;-87
2023/03/26 01:51:09;;;;;;;2.00;0.75;;;;;;;9.74;52.77;98592.88;4263504;33;33863;-86
2023/03/26 01:53:41;;;;;;;2.85;1.02;;;;;;;9.07;54.65;98592.31;4274675;33;34270;-86
2023/03/26 01:56:11;;;;;;;2.95;1.05;;;;;;;9.50;53.64;98593.53;4259684;33;34687;-88
2023/03/26 01:58:42;;;;;;;3.03;0.98;;;;;;;9.17;54.69;98598.47;4273834;33;34321;-86
2023/03/26 02:01:29;;;;;;;3.60;1.00;;;;;;;9.65;53.39;98595.38;4272033;33;34924;-87
2023/03/26 02:04:08;;;;;;;1.23;0.70;;;;;;;9.63;53.74;98609.19;4260207;33;33644;-85
2023/03/26 02:06:46;;;;;;;1.23;0.65;;;;;;;9.59;52.95;98602.25;4258950;33;34108;-87
2023/03/26 02:09:19;;;;;;;2.12;0.90;;;;;;;9.59;53.04;98595.38;4259169;33;33363;-87
2023/03/26 02:11:47;;;;;;;2.55;0.82;;;;;;;9.51;53.43;98594.44;4258213;33;33921;-86
2023/03/26 02:14:15;;;;;;;1.80;0.80;;;;;;;9.16;54.10;98597.56;4260549;33;34228;-86
2023/03/26 02:16:45;;;;;;;1.85;0.80;;;;;;;9.24;54.36;98605.41;4271781;33;34261;-85
2023/03/26 02:19:20;;;;;;;2.05;0.70;;;;;;;9.42;53.53;98599.53;4267715;33;34239;-85
2023/03/26 02:21:50;;;;;;;1.92;0.88;;;;;;;9.53;53.49;98604.78;4264042;33;33813;-84
2023/03/26 02:24:18;;;;;;;2.83;0.77;;;;;;;9.74;52.76;98613.59;4272755;33;35003;-85
2023/03/26 02:26:46;;;;;;;1.80;0.60;;;;;;;9.82;52.64;98608.47;4274956;33;34239;-86
2023/03/26 02:29:18;;;;;;;2.62;0.75;;;;;;;9.81;52.50;98603.25;4278810;33;34136;-89
2023/03/26 02:31:47;;;;;;;1.90;0.70;;;;;;;9.71;52.68;98605.78;4240318;33;34216;-87
2023/03/26 02:34:15;;;;;;;1.23;0.60;;;;;;;9.86;52.43;98601.59;4258037;33;34641;-85
2023/03/26 02:36:45;;;;;;;3.70;0.80;;;;;;;9.47;53.29;98598.72;4259137;33;32418;-87
2023/03/26 02:39:13;;;;;;;1.90;0.60;;;;;;;9.64;52.87;98593.66;4271975;33;33602;-87
2023/03/26 02:41:42;;;;;;;1.62;0.80;;;;;;;9.53;53.18;98591.84;4270978;33;34728;-87
2023/03/26 02:44:09;;;;;;;2.00;0.62;;;;;;;9.69;52.62;98593.69;4259081;33;34910;-87
2023/03/26 02:46:40;;;;;;;1.27;0.65;;;;;;;9.67;52.58;98591.09;4270837;33;33468;-86
2023/03/26 02:49:09;;;;;;;2.15;0.70;;;;;;;9.60;52.60;98584.16;4270570;33;34092;-88
2023/03/26 02:51:37;;;;;;;1.20;0.60;;;;;;;9.40;52.91;98576.25;4271245;33;34832;-90
2023/03/26 02:54:05;;;;;;;2.08;0.60;;;;;;;9.40;52.98;98570.22;4270048;33;34033;-86
2023/03/26 02:56:34;;;;;;;2.17;0.70;;;;;;;9.21;53.15;98569.19;4271421;33;35556;-85
2023/03/26 02:59:03;;;;;;;0.95;0.50;;;;;;;9.25;53.04;98569.22;4257621;33;33116;-86
2023/03/26 03:01:33;;;;;;;2.67;0.75;;;;;;;9.22;53.05;98579.53;4270616;33;34268;-88
2023/03/26 03:04:03;;;;;;;3.30;0.75;;;;;;;9.20;52.99;98578.63;4270835;33;34200;-87
2023/03/26 03:06:31;;;;;;;1.83;0.90;;;;;;;8.76;53.77;98576.50;4260046;33;34714;-85
2023/03/26 03:09:01;;;;;;;3.83;0.68;;;;;;;8.94;53.45;98573.25;4257146;33;32931;-89
2023/03/26 03:11:31;;;;;;;2.47;1.00;;;;;;;8.57;54.68;98568.56;4280660;33;32487;-85
2023/03/26 03:13:58;;;;;;;1.20;0.70;;;;;;;8.39;54.97;98564.03;4256541;33;33593;-87
2023/03/26 03:16:26;;;;;;;1.48;0.62;;;;;;;8.21;55.75;98562.06;4268437;33;34667;-85
2023/03/26 03:18:55;;;;;;;3.20;0.85;;;;;;;8.38;55.35;98568.34;4258457;33;33138;-87
2023/03/26 03:21:27;;;;;;;3.25;1.23;;;;;;;8.32;55.43;98572.53;4265311;33;33907;-86
2023/03/26 03:23:55;;;;;;;3.67;0.80;;;;;;;8.49;54.92;98583.97;4273336;33;33998;-86
2023/03/26 03:26:28;;;;;;;3.37;1.08;;;;;;;8.43;55.54;98576.13;4273490;33;34572;-85
2023/03/26 03:28:59;;;;;;;3.37;0.80;;;;;;;8.38;55.66;98573.50;4260497;33;32217;-86
2023/03/26 03:31:27;;;;;;;3.00;1.15;;;;;;;8.61;54.96;98573.78;4273664;33;33990;-86
2023/03/26 03:33:56;;;;;;;3.20;1.10;;;;;;;8.47;55.54;98573.59;4273127;33;33895;-86
2023/03/26 03:36:26;;;;;;;3.35;1.25;;;;;;;8.56;55.38;98578.03;4273639;33;33409;-86
2023/03/26 03:38:54;;;;;;;2.30;0.90;;;;;;;8.56;55.46;98565.09;4274085;33;33444;-86
2023/03/26 03:41:22;;;;;;;4.97;1.30;;;;;;;8.71;54.95;98570.44;4260042;33;32434;-86
2023/03/26 03:43:50;;;;;;;5.82;1.17;;;;;;;8.71;55.06;98578.19;4272080;33;35038;-89
2023/03/26 03:46:18;;;;;;;3.65;1.30;;;;;;;8.82;54.72;98580.00;4273973;33;34417;-89
2023/03/26 03:48:49;;;;;;;4.22;1.20;;;;;;;8.78;54.72;98581.69;4271566;33;33482;-85
2023/03/26 03:51:17;;;;;;;2.90;1.10;;;;;;;8.80;54.57;98581.72;4272712;33;33721;-89
2023/03/26 03:53:45;;;;;;;4.53;1.58;;;;;;;8.83;54.00;98580.03;4271863;33;34152;-85
2023/03/26 03:56:13;;;;;;;3.33;1.10;;;;;;;8.73;54.26;98579.06;4272614;33;35448;-88
2023/03/26 03:58:45;;;;;;;3.70;1.17;;;;;;;8.68;54.58;98583.31;4271959;33;33336;-88
2023/03/26 04:01:14;;;;;;;2.80;1.10;;;;;;;8.77;54.29;98583.41;4268653;33;33478;-87
2023/03/26 04:03:44;;;;;;;2.33;0.95;;;;;;;8.65;54.50;98601.38;4271953;33;33929;-86
2023/03/26 04:06:17;;;;;;;2.83;0.80;;;;;;;8.77;54.08;98592.88;4280509;33;34575;-86
2023/03/26 04:08:48;;;;;;;3.92;0.90;;;;;;;8.71;54.31;98598.87;4272993;33;33289;-90
2023/03/26 04:11:16;;;;;;;4.25;0.90;;;;;;;8.70;54.13;98599.69;4267848;33;33783;-86
2023/03/26 04:13:44;;;;;;;3.28;1.02;;;;;;;8.70;53.84;98591.94;4262343;33;34260;-87
2023/03/26 04:16:13;;;;;;;1.77;0.88;;;;;;;8.85;53.58;98604.16;4273258;33;34648;-86
2023/03/26 04:18:41;;;;;;;2.65;1.02;;;;;;;8.76;53.81;98596.31;4269717;33;33228;-85
2023/03/26 04:21:29;;;;;;;3.62;1.00;;;;;;;8.67;53.87;98604.81;4266148;33;33940;-84
2023/03/26 04:23:56;;;;;;;2.70;0.88;;;;;;;8.63;54.11;98597.87;4267185;33;34133;-85
2023/03/26 04:26:29;;;;;;;2.67;0.82;;;;;;;8.50;54.31;98598.63;4242728;33;34167;-86
2023/03/26 04:28:59;;;;;;;1.92;0.65;;;;;;;8.42;54.42;98595.06;4256738;33;34061;-86
2023/03/26 04:31:30;;;;;;;3.72;1.05;;;;;;;8.35;54.82;98598.41;4258881;33;33737;-87
2023/03/26 04:34:05;;;;;;;2.42;1.00;;;;;;;8.36;54.64;98598.41;4259533;33;33781;-87
2023/03/26 04:36:34;;;;;;;2.42;0.82;;;;;;;8.25;55.12;98598.25;4243920;33;33551;-86
2023/03/26 04:39:03;;;;;;;2.75;0.88;;;;;;;8.28;55.09;98603.47;4272441;33;33543;-86
2023/03/26 04:41:32;;;;;;;4.35;0.90;;;;;;;8.12;55.18;98600.69;4261468;33;32875;-86
2023/03/26 04:44:00;;;;;;;3.78;0.90;;;;;;;8.27;55.16;98599.16;4271962;33;34616;-86
2023/03/26 04:46:32;;;;;;;4.72;1.10;;;;;;;8.33;54.91;98615.56;4266720;33;34757;-86
2023/03/26 04:49:00;;;;;;;2.55;1.20;;;;;;;8.19;55.20;98612.84;4262964;33;33107;-85
2023/03/26 04:51:38;;;;;;;3.00;1.15;;;;;;;7.93;55.98;98615.03;4249103;33;34771;-89
2023/03/26 04:54:11;;;;;;;2.17;0.90;;;;;;;8.18;55.81;98622.28;4253655;33;34069;-85
2023/03/26 04:56:45;;;;;;;2.58;1.00;;;;;;;7.91;56.63;98614.16;4251504;33;34075;-88
2023/03/26 04:59:24;;;;;;;2.67;0.98;;;;;;;8.34;56.12;98607.88;4251348;33;33145;-85
2023/03/26 05:01:53;;;;;;;2.42;0.90;;;;;;;8.28;56.48;98618.97;4233495;33;33949;-86
2023/03/26 05:04:21;;;;;;;3.72;1.10;;;;;;;8.38;56.23;98617.41;4258980;33;34310;-86
2023/03/26 05:06:53;;;;;;;1.73;0.85;;;;;;;8.51;56.37;98610.69;4266710;33;34546;-88
2023/03/26 05:09:21;;;;;;;2.78;0.80;;;;;;;8.92;56.11;98607.69;4259738;33;33244;-89
2023/03/26 05:11:50;;;;;;;3.33;0.90;;;;;;;9.49;55.43;98606.50;4257328;33;33965;-86
2023/03/26 05:14:18;;;;;;;1.85;0.73;;;;;;;9.71;54.50;98607.53;4265345;33;34903;-86
2023/03/26 05:16:49;;;;;;;2.17;0.77;;;;;;;10.13;54.85;98609.50;4261033;33;33895;-85
2023/03/26 05:19:16;;;;;;;1.52;0.82;;;;;;;10.34;53.32;98595.84;4272865;33;33445;-86
2023/03/26 05:21:44;;;;;;;2.40;0.60;;;;;;;10.29;53.10;98600.13;4273142;33;34714;-87
2023/03/26 05:24:12;;;;;;;5.78;1.10;;;;;;;10.37;53.10;98610.53;4259875;33;32868;-87
2023/03/26 05:26:40;;;;;;;1.70;0.85;;;;;;;10.07;53.77;98612.06;4259824;33;34062;-90
2023/03/26 05:29:08;;;;;;;3.53;0.90;;;;;;;10.29;53.70;98617.41;4259531;33;33006;-88
2023/03/26 05:31:36;;;;;;;1.52;0.52;;;;;;;10.46;53.27;98606.25;4272593;33;33947;-85
2023/03/26 05:34:05;;;;;;;2.42;0.62;;;;;;;10.65;53.11;98601.16;4272153;33;35503;-87
2023/03/26 05:36:33;;;;;;;3.75;0.80;;;;;;;10.60;53.67;98593.34;4272912;33;33477;-85
2023/03/26 05:39:02;;;;;;;2.87;0.70;;;;;;;10.61;54.01;98600.28;4274630;33;33749;-87
2023/03/26 05:41:33;;;;;;;3.37;0.68;;;;;;;10.51;54.53;98592.44;4267484;33;34068;-87
2023/03/26 05:44:01;;;;;;;3.12;0.70;;;;;;;10.48;54.21;98596.75;4274925;33;34352;-87
2023/03/26 05:46:29;;;;;;;3.67;0.80;;;;;;;10.09;55.61;98596.53;4276578;33;34577;-85
2023/03/26 05:48:56;;;;;;;1.75;0.80;;;;;;;10.28;55.87;98593.22;4271813;33;33227;-86
2023/03/26 05:51:24;;;;;;;2.50;0.80;;;;;;;10.23;56.71;98600.94;4272193;33;33751;-89
2023/03/26 05:53:55;;;;;;;2.90;0.70;;;;;;;10.37;56.44;98595.84;4272687;33;33976;-87
2023/03/26 05:56:25;;;;;;;2.45;0.75;;;;;;;10.63;55.30;98603.72;4272718;33;32349;-86
2023/03/26 05:58:56;;;;;;;4.70;1.10;;;;;;;10.67;54.62;98595.09;4267740;33;33183;-89
2023/03/26 06:01:26;;;;;;;3.00;0.80;;;;;;;10.69;54.73;98598.56;4271048;33;33474;-86
2023/03/26 06:03:55;;;;;;;2.87;1.00;;;;;;;10.81;53.89;98596.88;4259948;33;32580;-85
2023/03/26 06:06:24;;;;;;;2.47;1.00;;;;;;;10.96;52.86;98591.72;4271613;33;33791;-85
2023/03/26 06:08:53;;;;;;;1.73;0.70;;;;;;;10.98;52.78;98591.72;4271791;33;34441;-87
2023/03/26 06:11:30;;;;;;;1.35;0.70;;;;;;;10.57;53.19;98585.56;4268977;33;34467;-86
2023/03/26 06:13:59;;;;;;;1.77;0.70;;;;;;;11.13;50.47;98579.62;4271050;33;34165;-86
2023/03/26 06:16:26;;;;;;;2.53;0.90;;;;;;;10.94;49.46;98583.91;4257003;33;33797;-87
2023/03/26 06:18:55;;;;;;;3.65;0.98;;;;;;;11.13;49.13;98583.94;4262754;33;32176;-87
2023/03/26 06:21:25;;;;;;;5.05;0.80;;;;;;;11.03;49.98;98587.41;4258465;33;33979;-86
2023/03/26 06:23:54;;;;;;;3.05;0.80;;;;;;;11.04;48.81;98578.75;4258444;33;33736;-86
2023/03/26 06:26:24;;;;;;;4.65;1.30;;;;;;;11.36;47.68;98581.38;4273892;33;33808;-86
2023/03/26 06:28:52;;;;;;;3.20;0.82;;;;;;;11.34;48.18;98593.50;4270579;33;34219;-85
2023/03/26 06:31:20;;;;;;;3.60;1.08;;;;;;;11.28;47.80;98591.75;4270599;33;32898;-87
2023/03/26 06:33:48;;;;;;;3.15;1.00;;;;;;;11.11;48.09;98596.94;4271182;33;35032;-86
2023/03/26 06:36:15;;;;;;;2.67;1.08;;;;;;;11.01;48.91;98602.09;4271477;33;33431;-87
2023/03/26 06:38:43;;;;;;;2.70;0.85;;;;;;;11.12;48.16;98598.66;4271148;33;33530;-86
2023/03/26 06:41:11;;;;;;;2.35;0.80;;;;;;;11.35;47.94;98606.47;4271499;33;34751;-88
2023/03/26 06:43:39;;;;;;;2.08;0.80;;;;;;;11.57;47.19;98596.94;4271019;33;35008;-85
2023/03/26 06:46:09;;;;;;;1.75;0.98;;;;;;;11.87;46.81;98601.28;4269776;33;34285;-87
2023/03/26 06:48:41;;;;;;;3.60;0.77;;;;;;;11.93;46.74;98603.88;4259911;33;31852;-86
2023/03/26 06:51:11;;;;;;;1.60;0.70;;;;;;;12.34;46.37;98602.03;4247799;33;33848;-87
2023/03/26 06:53:40;;;;;;;3.83;1.02;;;;;;;12.06;47.13;98607.31;4272143;33;34922;-86
2023/03/26 06:56:08;;;;;;;3.67;1.42;;;;;;;12.29;46.55;98608.97;4259973;33;33285;-87
2023/03/26 06:58:36;;;;;;;5.93;1.98;;;;;;;12.75;46.04;98609.66;4273863;33;33256;-86
2023/03/26 07:01:16;;;;;;;6.30;2.00;;;;;;;12.73;46.07;98603.63;4268818;33;32176;-86
2023/03/26 07:03:57;;;;;;;6.12;1.75;;;;;;;12.72;46.63;98606.22;4271837;33;32424;-86
2023/03/26 07:06:36;;;;;;;4.60;1.73;;;;;;;12.20;47.56;98619.38;4274709;33;32889;-87
2023/03/26 07:09:06;;;;;;;4.47;1.50;;;;;;;12.26;48.17;98616.78;4261546;33;32649;-86
2023/03/26 07:11:37;;;;;;;4.62;1.55;;;;;;;12.10;48.52;98628.97;4273140;33;34039;-87
2023/03/26 07:14:06;;;;;;;4.32;1.65;;;;;;;11.79;49.66;98628.97;4272956;33;32833;-85
2023/03/26 07:16:35;;;;;;;4.03;1.65;;;;;;;12.13;48.86;98626.34;4272939;33;34419;-85
2023/03/26 07:19:06;;;;;;;4.80;1.45;;;;;;;11.66;49.25;98615.09;4258893;33;33344;-83
2023/03/26 07:21:34;;;;;;;3.35;1.45;;;;;;;11.47;49.28;98621.16;4273997;33;33450;-83
2023/03/26 07:24:03;;;;;;;3.97;1.50;;;;;;;11.80;49.00;98619.44;4269671;33;34188;-83
2023/03/26 07:26:37;;;;;;;2.83;1.12;;;;;;;11.80;49.70;98620.31;4260272;33;33986;-82
2023/03/26 07:29:19;;;;;;;4.53;1.60;;;;;;;11.65;50.05;98620.31;4258558;33;34257;-85
2023/03/26 07:32:08;;;;;;;4.65;1.40;;;;;;;11.83;51.17;98616.84;4251339;33;33975;-83
2023/03/26 07:34:47;;;;;;;4.25;1.50;;;;;;;11.94;50.60;98617.72;4262130;33;35008;-86
2023/03/26 07:37:21;;;;;;;3.80;1.40;;;;;;;12.00;50.14;98614.25;4272268;33;32848;-84
2023/03/26 07:39:58;;;;;;;4.37;1.40;;;;;;;12.43;49.01;98609.81;4273266;33;33086;-85
2023/03/26 07:42:39;;;;;;;3.72;1.80;;;;;;;12.55;48.61;98609.75;4259283;33;33681;-83
2023/03/26 07:45:38;;;;;;;5.07;1.57;;;;;;;12.67;48.25;98611.44;4243405;33;180135;-85
2023/03/26 07:48:19;;;;;;;4.82;1.30;;;;;;;12.80;47.08;98607.03;4273483;33;34660;-87
2023/03/26 07:50:48;;;;;;;4.80;1.80;;;;;;;12.75;48.56;98608.81;4258373;33;33640;-84
2023/03/26 07:53:17;;;;;;;4.65;2.28;;;;;;;12.75;48.22;98604.47;4272895;33;34067;-84
2023/03/26 07:55:51;;;;;;;5.28;2.05;;;;;;;12.95;48.26;98612.16;4272434;33;33852;-85
2023/03/26 07:58:38;;;;;;;4.35;1.85;;;;;;;13.15;47.80;98610.31;4259442;33;33747;-84
2023/03/26 08:01:33;;;;;;;5.45;1.83;;;;;;;13.35;47.36;98609.34;4273107;33;34002;-85
2023/03/26 08:04:18;;;;;;;3.60;1.60;;;;;;;13.06;47.20;98614.69;4271814;33;34793;-88
2023/03/26 08:07:07;;;;;;;3.58;1.80;;;;;;;13.26;48.37;98610.28;4259963;33;35196;-86
2023/03/26 08:09:58;;;;;;;4.12;1.80;;;;;;;13.48;46.48;98610.94;4254582;33;34630;-85
2023/03/26 08:12:36;;;;;;;3.80;1.52;;;;;;;13.38;46.95;98604.97;4258853;33;33159;-84
2023/03/26 08:15:39;;;;;;;3.83;1.37;;;;;;;13.36;46.98;98604.09;4297300;28;33640;-87
2023/03/26 08:18:19;;;;;;;4.32;1.35;;;;;;;13.63;46.09;98600.41;4262956;33;34100;-84
2023/03/26 08:20:49;;;;;;;6.50;1.80;;;;;;;13.43;47.15;98594.50;4277609;33;35070;-84
2023/03/26 08:23:26;;;;;;;4.62;1.20;;;;;;;13.71;45.74;98604.69;4274176;33;33555;-83
2023/03/26 08:26:18;;;;;;;4.95;1.75;;;;;;;13.62;45.62;98601.28;4269214;33;33625;-85
2023/03/26 08:28:57;;;;;;;3.37;1.55;;;;;;;13.72;44.67;98590.81;4269131;33;37084;-83
2023/03/26 08:31:33;;;;;;;6.07;1.50;;;;;;;13.58;44.38;98591.78;4285242;33;33863;-84
2023/03/26 08:34:01;;;;;;;3.47;1.20;;;;;;;13.77;43.53;98592.47;4266934;33;33522;-85
2023/03/26 08:36:29;;;;;;;4.72;1.02;;;;;;;14.08;43.02;98589.56;4255236;33;33930;-84
2023/03/26 08:38:58;;;;;;;3.75;1.20;;;;;;;14.14;42.00;98588.66;4271093;33;34096;-84
2023/03/26 08:41:45;;;;;;;2.35;0.82;;;;;;;14.23;42.49;98580.72;4274875;33;33680;-86
2023/03/26 08:44:34;;;;;;;4.75;1.50;;;;;;;14.06;42.29;98587.00;4272208;33;32995;-84
2023/03/26 08:47:35;;;;;;;3.55;1.33;;;;;;;13.97;41.33;98576.66;4263161;33;33977;-85
2023/03/26 08:50:12;;;;;;;2.95;0.90;;;;;;;14.24;40.69;98579.81;4272639;33;34954;-85
2023/03/26 08:52:45;;;;;;;3.60;1.00;;;;;;;14.18;40.14;98574.69;4258905;33;34038;-84
2023/03/26 08:55:22;;;;;;;6.47;1.50;;;;;;;14.25;40.98;98576.37;4272119;33;32994;-87
2023/03/26 08:58:11;;;;;;;2.85;1.10;;;;;;;14.37;41.17;98576.22;4272726;33;33805;-85
2023/03/26 09:01:17;;;;;;;3.58;1.10;;;;;;;14.55;40.78;98565.59;4259397;33;35249;-85
2023/03/26 09:03:57;;;;;;;4.72;1.10;;;;;;;14.23;41.25;98562.47;4272562;33;34026;-84
2023/03/26 09:06:51;;;;;;;4.78;0.85;;;;;;;14.68;40.64;98561.06;4259714;33;33283;-84
2023/03/26 09:09:46;;;;;;;2.78;0.90;;;;;;;14.58;41.23;98562.06;4243205;33;33629;-85
2023/03/26 09:12:45;;;;;;;2.10;0.70;;;;;;;14.85;40.50;98563.47;4270282;33;34756;-86
2023/03/26 09:15:22;;;;;;;2.05;0.70;;;;;;;14.98;40.26;98564.12;4265541;33;33984;-86
2023/03/26 09:18:27;;;;;;;3.62;0.80;;;;;;;14.72;40.72;98554.06;4269255;33;33422;-86
2023/03/26 09:21:26;;;;;;;2.70;1.10;;;;;;;14.88;40.16;98557.31;4271236;33;34912;-85
2023/03/26 09:24:10;;;;;;;2.85;1.05;;;;;;;14.88;40.68;98562.53;4264148;33;33711;-85
2023/03/26 09:26:46;;;;;;;3.55;1.23;;;;;;;15.15;40.79;98550.81;4272320;33;34027;-86
2023/03/26 09:29:40;;;;;;;3.20;1.35;;;;;;;15.05;42.22;98550.97;4259764;33;34150;-85
2023/03/26 09:32:26;;;;;;;3.72;1.40;;;;;;;15.44;42.17;98552.97;4263489;33;34173;-87
2023/03/26 09:35:11;;;;;;;3.12;1.30;;;;;;;15.02;43.03;98551.00;4266961;33;34318;-84
2023/03/26 09:37:52;;;;;;;2.78;1.05;;;;;;;14.99;42.46;98545.81;4272900;33;33525;-84
2023/03/26 09:40:46;;;;;;;3.58;1.50;;;;;;;15.30;41.79;98540.13;4253890;33;32989;-87
2023/03/26 09:43:19;;;;;;;2.90;0.98;;;;;;;15.44;40.54;98530.31;4266479;33;33579;-86
2023/03/26 09:46:19;;;;;;;3.58;1.23;;;;;;;15.21;40.63;98527.22;4268165;33;34266;-86
2023/03/26 09:49:36;;;;;;;2.50;1.00;;;;;;;15.48;39.90;98524.16;4253601;33;33885;-86
2023/03/26 09:52:22;;;;;;;3.67;1.17;;;;;;;15.55;39.73;98520.53;4236918;33;32799;-85
2023/03/26 09:54:53;;;;;;;4.32;1.00;;;;;;;15.38;39.25;98506.94;4269872;33;34511;-85
2023/03/26 09:58:07;;;;;;;2.05;0.90;;;;;;;15.36;39.71;98503.47;4267387;33;34102;-84
2023/03/26 10:00:48;;;;;;;3.47;1.00;;;;;;;15.01;40.86;98502.31;4236251;33;34006;-86
2023/03/26 10:03:55;;;;;;;3.15;0.95;;;;;;;14.82;41.27;98487.81;4247026;33;32926;-86
2023/03/26 10:06:31;;;;;;;2.62;0.85;;;;;;;14.99;40.68;98497.97;4225007;33;33843;-86
2023/03/26 10:09:07;;;;;;;1.80;0.88;;;;;;;14.98;40.57;98491.91;4247569;33;34236;-86
2023/03/26 10:11:53;;;;;;;4.60;1.10;;;;;;;15.03;40.79;98497.03;4270998;33;33858;-88
2023/03/26 10:14:26;;;;;;;4.50;1.15;;;;;;;14.99;44.62;98504.06;4263078;33;33235;-86
2023/03/26 10:17:04;;;;;;;9.48;1.20;;;;;;;14.58;47.12;98512.50;4257434;33;35413;-88
2023/03/26 10:19:38;;;;;;;4.37;0.93;;;;;;;14.44;48.26;98506.59;4251785;33;35176;-85
2023/03/26 10:22:37;;;;;;;4.07;0.88;;;;;;;14.55;47.93;98508.22;4265077;33;34482;-86
2023/03/26 10:25:05;;;;;;;41.75;21.50;;;;;;;13.77;50.08;98510.84;4271589;33;34252;-85
2023/03/26 10:27:45;;;;;;;7.00;3.62;;;;;;;14.17;50.11;98497.34;4264595;33;34629;-87
2023/03/26 10:30:40;;;;;;;6.45;3.03;;;;;;;13.90;49.61;98493.34;4256789;33;34234;-86
2023/03/26 10:33:34;;;;;;;4.00;1.87;;;;;;;14.32;53.16;98484.16;4248230;33;34048;-88
2023/03/26 10:36:35;;;;;;;3.00;1.20;;;;;;;14.20;52.70;98485.16;4259710;33;33002;-87
2023/03/26 10:39:17;;;;;;;4.18;0.88;;;;;;;14.28;50.65;98478.13;4255404;33;33834;-89
2023/03/26 10:42:23;;;;;;;4.45;1.25;;;;;;;14.51;48.82;98466.53;4246204;33;33702;-84
2023/03/26 10:45:26;;;;;;;5.57;2.40;;;;;;;14.47;49.92;98462.19;4268844;33;34720;-86
2023/03/26 10:48:17;;;;;;;7.97;1.50;;;;;;;14.29;49.51;98460.72;4259171;33;32884;-86
2023/03/26 10:51:15;;;;;;;7.00;1.90;;;;;;;14.22;50.27;98457.31;4263729;33;33733;-87
2023/03/26 10:53:59;;;;;;;3.37;1.50;;;;;;;14.33;47.94;98447.63;4270284;33;34939;-87
2023/03/26 10:56:38;;;;;;;5.03;1.80;;;;;;;14.03;50.76;98443.66;4255076;33;34107;-87
2023/03/26 10:59:09;;;;;;;3.60;0.80;;;;;;;14.07;50.44;98442.75;4265847;33;33335;-86
2023/03/26 11:01:40;;;;;;;3.37;1.02;;;;;;;14.06;49.28;98437.56;4257939;33;33847;-87
2023/03/26 11:04:15;;;;;;;4.62;1.15;;;;;;;14.34;48.28;98435.44;4265764;33;34207;-86
2023/03/26 11:06:57;;;;;;;7.72;2.30;;;;;;;14.53;47.14;98426.50;4271358;33;34134;-83
2023/03/26 11:09:40;;;;;;;11.20;4.22;;;;;;;14.18;50.67;98424.38;4267295;33;33630;-85
2023/03/26 11:12:17;;;;;;;6.40;1.45;;;;;;;14.24;51.72;98420.78;4270516;33;33946;-84
2023/03/26 11:15:00;;;;;;;5.07;2.12;;;;;;;14.39;51.26;98415.34;4271621;33;35029;-85
2023/03/26 11:17:41;;;;;;;4.60;1.60;;;;;;;14.80;51.35;98419.12;4264646;33;33589;-86
2023/03/26 11:20:16;;;;;;;5.43;1.83;;;;;;;14.35;52.72;98405.84;4267862;33;33606;-86
2023/03/26 11:23:07;;;;;;;4.07;1.58;;;;;;;14.08;51.35;98404.50;4251235;33;33980;-84
2023/03/26 11:25:57;;;;;;;6.07;1.58;;;;;;;14.24;52.06;98397.34;4268083;33;35134;-84
2023/03/26 11:28:31;;;;;;;3.08;1.23;;;;;;;14.74;49.04;98393.16;4265235;33;33465;-84
2023/03/26 11:31:19;;;;;;;3.47;1.00;;;;;;;14.74;48.24;98387.94;4253628;33;33382;-84
2023/03/26 11:33:50;;;;;;;4.25;1.30;;;;;;;15.05;46.60;98370.84;4265662;33;34430;-83
2023/03/26 11:36:23;;;;;;;3.17;1.10;;;;;;;15.14;46.11;98376.78;4260290;33;33914;-86
2023/03/26 11:38:52;;;;;;;2.67;1.00;;;;;;;15.48;48.86;98367.41;4252672;33;33980;-84
2023/03/26 11:41:23;;;;;;;3.22;1.35;;;;;;;15.78;46.02;98352.03;4251987;33;33110;-85
2023/03/26 11:43:56;;;;;;;6.10;1.08;;;;;;;15.99;44.99;98346.34;4256401;33;33997;-85
2023/03/26 11:46:25;;;;;;;2.20;1.10;;;;;;;16.07;43.57;98340.09;4252060;33;34174;-86
2023/03/26 11:49:05;;;;;;;2.25;0.85;;;;;;;15.95;42.62;98331.63;4266545;33;33561;-85
2023/03/26 11:51:36;;;;;;;1.70;0.62;;;;;;;15.92;42.10;98329.09;4246758;33;33063;-86
2023/03/26 11:54:06;;;;;;;1.92;0.68;;;;;;;16.04;39.05;98313.12;4247232;33;34102;-85
2023/03/26 11:56:41;;;;;;;2.58;0.80;;;;;;;15.86;39.89;98313.53;4268947;33;33737;-86
2023/03/26 11:59:34;;;;;;;2.47;0.65;;;;;;;16.17;38.59;98300.59;4255028;33;34678;-86
2023/03/26 12:02:23;;;;;;;2.22;0.73;;;;;;;16.49;39.34;98298.97;4259297;33;33560;-86
2023/03/26 12:04:55;;;;;;;2.25;0.80;;;;;;;16.82;34.14;98283.31;4259327;33;33603;-87
2023/03/26 12:07:31;;;;;;;1.67;1.02;;;;;;;16.82;33.72;98278.97;4252750;33;34310;-85
2023/03/26 12:10:04;;;;;;;2.10;0.60;;;;;;;17.07;32.80;98278.28;4259425;33;34142;-87
2023/03/26 12:12:46;;;;;;;1.15;0.47;;;;;;;17.21;31.52;98276.16;4250147;33;33894;-87
2023/03/26 12:15:17;;;;;;;1.20;0.37;;;;;;;17.39;32.39;98259.91;4257557;33;33816;-86